Saint Pete Beach, FL

10:26 PM EDT on September 20, 2014 (GMT -0400)
MacDill Air Force Base | Change Station
CLOSE
Current Station
Airport
Location: Tampa Macdill AFB,
Elevation: 13 ft
Nearby Weather Stations

Elev 13 ft 27.85 °N, 82.52 °W | Updated 8 minutes ago

Partly Cloudy
Partly Cloudy
75 °F
Feels Like 75 °F
N
4
Wind Variable Wind from North

Today
High -- | Low -- °F
--% Chance of Precip.
Yesterday
High -- | Low -- °F
Precip. -- in
7:18 AM 7:29 PM
Waning Crescent, 9% visible
Pressure 29.95 in
Visibility 10.0 miles
Clouds Mostly Cloudy 3000 ft
Mostly Cloudy 3800 ft
Dew Point 73 °F
Humidity 94%
Rainfall 0.17 in
Snow Depth Not available.
UV 0 out of 12
Pollen 4.20 out of 12
Air Quality Not available.
Flu Activity Not available.
SPECI KMCF 210218Z AUTO 36003KT 10SM BKN030 BKN038 24/23 A2995 RMK AO2 $

More Conditions Fewer Conditions

Pressure 29.95 in
Visibility 10.0 miles
Clouds Mostly Cloudy 3000 ft
Mostly Cloudy 3800 ft
Dew Point 73 °F
Humidity 94%
Rainfall 0.17 in
Snow Depth Not available.
UV 0 out of 12
Pollen 4.20 out of 12
Air Quality Not available.
Flu Activity Not available.
SPECI KMCF 210218Z AUTO 36003KT 10SM BKN030 BKN038 24/23 A2995 RMK AO2 $

More Conditions Fewer Conditions

10-Day Weather Forecast

Almanac

Astronomy

Sep. 20, 2014 Rise Set
Actual Time 7:18 AM EDT 7:29 PM EDT
Civil Twilight 6:55 AM EDT 7:53 PM EDT
Nautical Twilight 6:27 AM EDT 8:20 PM EDT
Astronomical Twilight 6:00 AM EDT 8:47 PM EDT
Moon 4:10 AM EDT (9/20) 5:20 PM EDT (9/20)
Length of Visible Light 12h 58m
Length of Day
12h 11m
Tomorrow will be 1m 38s shorter.
Waning Crescent, 9% of the Moon is Illuminated
Today
Waning Crescent
Sep 24
New
Oct 1
First Quarter
Oct 8
Full
Oct 15
Last Quarter

Today's Extremes

State Highs State Lows

Community

WunderPhotos

Upload Photos

1,755,032 photos uploaded!

WunderBlogs® & News

Nearby

Air Quality

  Air Quality AQ Index Pollutant
Saturday Good
PM2.5
Saturday Good
OZONE
Sunday Good
PM2.5
Sunday Good
OZONE

Snow Depth

Station Depth Elevation
No new snow has been reported.

Earthquake Activity

City Distance Mag. Time & Date
No recent earthquake activity has been reported nearby.
Minimum magnitude displayed is 2.5.

Coastal Water Temperatures

Place Temperature
Port Manatee, FL 84.0 °F
St Petersburg, FL 84.9 °F
Old Port Tampa, FL 82.9 °F

Nearby Weather Stations